Impacts TAF Board
For situational awareness. Not to be used for flight planning purposes.
IDs:

KMCB - McComb/Lewis Fld, MS, US

Issued at 1744 UTC 07 Dec 2021
Updated at 1835 UTC 07 Dec 2021
Potential Impact None Slight Moderate High
Time1753Z 07/19Z 07/20Z 07/21Z 07/22Z 07/23Z 08/00Z 08/01Z 08/02Z 08/03Z 08/04Z 08/05Z 08/06Z 08/07Z>>
Type OBS PRVL PRVL PRVL PRVL PRVL PRVL PRVL PRVL PRVL PRVL PRVL PRVL PRVL
VIS 10 >6 >6 >6 >6 4 4 4 4 4 4 4 4 4
CIG 11 11 11 7 7 5 5 5 5 5 5 5 5 5
Cover OVC OVC OVC OVC OVC OVC OVC OVC OVC OVC OVC OVC OVC OVC
FltCat MVFR MVFR MVFR IFR IFR IFR IFR IFR IFR IFR IFR IFR IFR IFR
WX -- -- -- -- -- BR BR BR BR BR BR BR BR BR
WDir 110 90 90 VRB VRB VRB VRB VRB VRB VRB VRB VRB VRB VRB
WSpd 5 5 5 4 4 3 3 3 3 3 3 3 3 3
WGst -- -- -- -- -- -- -- -- -- -- -- -- -- --
WSHgt -- -- -- -- -- -- -- -- -- -- -- -- -- --
WSDir -- -- -- -- -- -- -- -- -- -- -- -- -- --
WSSpd -- -- -- -- -- -- -- -- -- -- -- -- -- --
Raw TAF
KMCB 071744Z 0718/0818 09005KT P6SM OVC011
  FM072100 VRB04KT P6SM OVC007
  FM072300 VRB03KT 4SM BR OVC005
  FM080800 VRB03KT 1SM BR VCSH OVC003
  FM081600 36005KT 6SM BR OVC004


Raw METAR
KMCB 071753Z AUTO 11005KT 10SM OVC011 11/08 A3007 RMK AO2 SLP180 T01060083 10106 20089 58016
KMCB 071653Z AUTO 09005KT 10SM OVC011 10/07 A3011 RMK AO2 SLP194 T01000072
KMCB 071553Z AUTO 09004KT 10SM OVC011 09/07 A3013 RMK AO2 SLP200 T00940072

METAR Board
Radar Display
Forecast Discussion
For situational awareness. Not to be used for flight planning purposes.